createdAt,value
2023-02-22T00:01:08.372Z,3.85
2023-02-22T00:03:37.293Z,3.81
2023-02-22T00:06:06.807Z,3.82
2023-02-22T00:08:37.626Z,3.84
2023-02-22T00:11:09.042Z,3.86
2023-02-22T00:13:38.803Z,3.89
2023-02-22T00:16:07.363Z,3.84
2023-02-22T00:18:36.080Z,3.83
2023-02-22T00:21:05.589Z,3.82
2023-02-22T00:23:35.231Z,3.81
2023-02-22T00:26:03.777Z,3.78
2023-02-22T00:28:32.528Z,3.73
2023-02-22T00:31:01.151Z,3.69
2023-02-22T00:33:29.627Z,3.64
2023-02-22T00:35:58.014Z,3.61
2023-02-22T00:38:28.960Z,3.58
2023-02-22T00:40:57.530Z,3.55
2023-02-22T00:43:26.626Z,3.52
2023-02-22T00:45:55.138Z,3.49
2023-02-22T00:48:24.155Z,3.48
2023-02-22T00:50:55.514Z,3.49
2023-02-22T00:53:26.288Z,3.50
2023-02-22T00:55:54.986Z,3.49
2023-02-22T00:58:24.584Z,3.50
2023-02-22T01:00:53.844Z,3.51
2023-02-22T01:03:22.367Z,3.50
2023-02-22T01:05:51.368Z,3.50
2023-02-22T01:08:20.562Z,3.50
2023-02-22T01:10:48.840Z,3.49
2023-02-22T01:13:19.337Z,3.50
2023-02-22T01:15:48.773Z,3.49
2023-02-22T01:18:17.561Z,3.46
2023-02-22T01:20:48.259Z,3.41
2023-02-22T01:23:17.816Z,3.36
2023-02-22T01:25:46.395Z,3.33
2023-02-22T01:28:16.506Z,3.29
2023-02-22T01:30:45.776Z,3.28
2023-02-22T01:33:15.846Z,3.26
2023-02-22T01:35:46.531Z,3.24
2023-02-22T01:38:15.349Z,3.18
2023-02-22T01:40:48.548Z,3.13
2023-02-22T01:43:20.194Z,3.06
2023-02-22T01:46:04.419Z,2.99
2023-02-22T01:48:38.867Z,2.95
2023-02-22T01:51:22.818Z,2.90
2023-02-22T01:53:59.381Z,2.88
2023-02-22T01:56:31.321Z,2.86
2023-02-22T01:59:06.945Z,2.84
2023-02-22T02:01:43.179Z,2.82
2023-02-22T02:04:18.500Z,2.84
2023-02-22T02:06:48.933Z,2.85
2023-02-22T02:09:43.838Z,2.86
2023-02-22T02:12:16.386Z,2.92
2023-02-22T02:14:44.996Z,2.98
2023-02-22T02:17:18.058Z,3.02
2023-02-22T02:19:59.673Z,3.02
2023-02-22T02:22:43.104Z,2.99
2023-02-22T02:25:26.846Z,2.97
2023-02-22T02:28:20.419Z,2.94
2023-02-22T02:31:02.528Z,2.94
2023-02-22T02:33:34.282Z,2.91
2023-02-22T02:36:33.995Z,2.87
2023-02-22T02:39:15.027Z,2.78
2023-02-22T02:41:50.829Z,2.65
2023-02-22T02:44:52.786Z,2.55
2023-02-22T02:47:27.376Z,2.49
2023-02-22T02:50:05.063Z,2.48
2023-02-22T02:52:37.339Z,2.47
2023-02-22T02:55:08.494Z,2.48
2023-02-22T02:57:39.072Z,2.50
2023-02-22T03:00:24.540Z,2.50
2023-02-22T03:03:04.482Z,2.49
2023-02-22T03:05:59.907Z,2.50
2023-02-22T03:08:28.692Z,2.50
2023-02-22T03:11:29.430Z,2.49
2023-02-22T03:14:27.199Z,2.49
2023-02-22T03:17:05.312Z,2.51
2023-02-22T03:19:45.676Z,2.52
2023-02-22T03:22:18.316Z,2.54
2023-02-22T03:24:56.096Z,2.55
2023-02-22T03:27:36.077Z,2.56
2023-02-22T03:30:16.145Z,2.52
2023-02-22T03:32:49.756Z,2.45
2023-02-22T03:35:25.918Z,2.39
2023-02-22T03:37:58.096Z,2.30
2023-02-22T03:40:35.716Z,2.24
2023-02-22T03:43:08.429Z,2.22
2023-02-22T03:45:43.816Z,2.20
2023-02-22T03:48:38.507Z,2.19
2023-02-22T03:51:08.317Z,2.15
2023-02-22T03:53:37.719Z,2.09
2023-02-22T03:56:11.435Z,2.01
2023-02-22T03:58:48.133Z,1.94
2023-02-22T04:01:17.508Z,1.85
2023-02-22T04:03:46.721Z,1.73
2023-02-22T04:06:17.096Z,1.66
2023-02-22T04:08:46.321Z,1.62
2023-02-22T04:11:15.812Z,1.63
2023-02-22T04:13:44.622Z,1.59
2023-02-22T04:16:13.343Z,1.55
2023-02-22T04:18:42.506Z,1.52
2023-02-22T04:21:11.193Z,1.52
2023-02-22T04:23:46.541Z,1.52
2023-02-22T04:26:15.437Z,1.46
2023-02-22T04:28:47.463Z,1.37
2023-02-22T04:31:18.545Z,1.31
2023-02-22T04:33:47.630Z,1.28
2023-02-22T04:36:19.598Z,1.21
2023-02-22T04:38:48.677Z,1.10
2023-02-22T04:41:19.142Z,1.04
2023-02-22T04:43:48.217Z,1.01
2023-02-22T04:46:23.119Z,1.02
2023-02-22T04:48:54.897Z,0.98
2023-02-22T04:51:26.868Z,0.98
2023-02-22T04:54:05.076Z,1.03
2023-02-22T04:56:35.640Z,1.08
2023-02-22T04:59:04.515Z,1.14
2023-02-22T05:01:35.514Z,1.17
2023-02-22T05:04:05.456Z,1.21
2023-02-22T05:06:34.713Z,1.27
2023-02-22T05:09:03.646Z,1.34
2023-02-22T05:11:32.335Z,1.35
2023-02-22T05:14:00.917Z,1.37
2023-02-22T05:16:30.321Z,1.42
2023-02-22T05:18:58.802Z,1.47
2023-02-22T05:21:27.389Z,1.54
2023-02-22T05:23:56.689Z,1.62
2023-02-22T05:26:25.197Z,1.71
2023-02-22T05:28:53.856Z,1.81
2023-02-22T05:31:22.909Z,1.93
2023-02-22T05:33:51.645Z,2.04
2023-02-22T05:36:20.330Z,2.13
2023-02-22T05:38:49.642Z,2.22
2023-02-22T05:41:18.700Z,2.33
2023-02-22T05:43:48.027Z,2.42
2023-02-22T05:46:16.939Z,2.52
2023-02-22T05:48:45.919Z,2.62
2023-02-22T05:51:15.435Z,2.74
2023-02-22T05:53:44.514Z,2.84
2023-02-22T05:56:13.105Z,2.95
2023-02-22T05:58:41.786Z,3.07
2023-02-22T06:01:10.433Z,3.19
2023-02-22T06:03:38.854Z,3.31
2023-02-22T06:06:07.696Z,3.42
2023-02-22T06:08:36.492Z,3.52
2023-02-22T06:11:05.538Z,3.60
2023-02-22T06:13:34.009Z,3.67
2023-02-22T06:16:03.889Z,3.75
2023-02-22T06:18:32.403Z,3.84
2023-02-22T06:21:00.982Z,3.93
2023-02-22T06:23:30.192Z,4.02
2023-02-22T06:25:58.972Z,4.10
2023-02-22T06:28:27.455Z,4.21
2023-02-22T06:30:56.447Z,4.31
2023-02-22T06:33:25.176Z,4.40
2023-02-22T06:35:53.819Z,4.48
2023-02-22T06:38:28.028Z,4.54
2023-02-22T06:40:56.622Z,4.62
2023-02-22T06:43:26.126Z,4.71
2023-02-22T06:45:54.714Z,4.81
2023-02-22T06:48:23.295Z,4.92
2023-02-22T06:50:52.086Z,5.03
2023-02-22T06:53:20.979Z,5.11
2023-02-22T06:55:49.969Z,5.21
2023-02-22T06:58:18.838Z,5.33
2023-02-22T07:00:47.793Z,5.47
2023-02-22T07:03:16.685Z,5.62
2023-02-22T07:05:45.545Z,5.77
2023-02-22T07:08:14.742Z,5.89
2023-02-22T07:10:43.321Z,5.99
2023-02-22T07:13:12.317Z,6.10
2023-02-22T07:15:41.310Z,6.32
2023-02-22T07:18:10.104Z,6.57
2023-02-22T07:20:38.711Z,6.81
2023-02-22T07:23:07.371Z,7.04
2023-02-22T07:25:35.943Z,7.23
2023-02-22T07:28:05.161Z,7.38
2023-02-22T07:30:34.812Z,7.56
2023-02-22T07:33:09.000Z,7.70
2023-02-22T07:35:39.219Z,7.84
2023-02-22T07:38:08.508Z,7.98
2023-02-22T07:40:38.739Z,8.10
2023-02-22T07:43:18.269Z,8.23
2023-02-22T07:45:49.222Z,8.33
2023-02-22T07:48:19.894Z,8.38
2023-02-22T07:50:48.953Z,8.45
2023-02-22T07:53:24.176Z,8.52
2023-02-22T07:55:53.276Z,8.56
2023-02-22T07:58:23.891Z,8.61
2023-02-22T08:00:53.506Z,8.69
2023-02-22T08:03:24.832Z,8.79
2023-02-22T08:05:56.096Z,8.93
2023-02-22T08:08:25.217Z,9.05
2023-02-22T08:10:53.799Z,9.19
2023-02-22T08:13:23.524Z,9.33
2023-02-22T08:15:54.042Z,9.44
2023-02-22T08:18:23.874Z,9.51
2023-02-22T08:20:54.577Z,9.56
2023-02-22T08:23:27.245Z,9.60
2023-02-22T08:25:57.060Z,9.69
2023-02-22T08:28:25.986Z,10.04
2023-02-22T08:30:54.563Z,10.49
2023-02-22T08:33:23.544Z,10.75
2023-02-22T08:35:52.718Z,10.87
2023-02-22T08:38:32.658Z,10.98
2023-02-22T08:41:01.487Z,11.08
2023-02-22T08:43:29.967Z,11.15
2023-02-22T08:45:58.791Z,11.21
2023-02-22T08:48:27.853Z,11.21
2023-02-22T08:50:56.645Z,11.26
2023-02-22T08:53:25.525Z,11.33
2023-02-22T08:55:54.681Z,11.32
2023-02-22T08:58:23.207Z,11.30
2023-02-22T09:00:52.737Z,11.32
2023-02-22T09:03:21.764Z,11.34
2023-02-22T09:05:50.573Z,11.36
2023-02-22T09:08:19.115Z,11.44
2023-02-22T09:10:50.446Z,11.48
2023-02-22T09:13:19.804Z,11.54
2023-02-22T09:15:48.420Z,11.59
2023-02-22T09:18:18.332Z,11.64
2023-02-22T09:20:47.203Z,11.67
2023-02-22T09:23:16.115Z,11.73
2023-02-22T09:25:44.599Z,11.88
2023-02-22T09:28:13.801Z,12.11
2023-02-22T09:30:42.850Z,12.36
2023-02-22T09:33:14.807Z,12.57
2023-02-22T09:35:46.653Z,12.68
2023-02-22T09:38:16.437Z,12.75
2023-02-22T09:41:12.569Z,12.80
2023-02-22T09:44:01.617Z,12.80
2023-02-22T09:46:38.519Z,12.81
2023-02-22T09:49:16.321Z,12.86
2023-02-22T09:51:55.540Z,13.00
2023-02-22T09:54:52.249Z,13.31
2023-02-22T09:57:32.848Z,13.58
2023-02-22T10:00:23.456Z,13.82
2023-02-22T10:03:14.562Z,13.98
2023-02-22T10:05:49.805Z,14.16
2023-02-22T10:08:20.038Z,14.43
2023-02-22T10:10:59.774Z,14.86
2023-02-22T10:13:51.500Z,15.40
2023-02-22T10:16:41.003Z,15.76
2023-02-22T10:19:11.404Z,16.04
2023-02-22T10:22:07.393Z,16.10
2023-02-22T10:25:09.640Z,16.08
2023-02-22T10:27:44.272Z,16.10
2023-02-22T10:30:30.922Z,16.14
2023-02-22T10:33:07.128Z,16.36
2023-02-22T10:35:41.223Z,16.48
2023-02-22T10:38:27.232Z,16.50
2023-02-22T10:41:02.465Z,16.57
2023-02-22T10:43:31.552Z,16.91
2023-02-22T10:46:03.841Z,17.35
2023-02-22T10:48:35.824Z,17.75
2023-02-22T10:51:08.748Z,18.11
2023-02-22T10:53:38.968Z,18.34
2023-02-22T10:56:08.339Z,18.41
2023-02-22T10:58:46.512Z,18.30
2023-02-22T11:01:21.460Z,18.33
2023-02-22T11:04:02.249Z,18.45
2023-02-22T11:06:33.416Z,18.59
2023-02-22T11:09:10.738Z,18.87
2023-02-22T11:11:46.032Z,19.02
2023-02-22T11:14:27.757Z,19.00
2023-02-22T11:16:59.042Z,18.83
2023-02-22T11:19:31.095Z,18.63
2023-02-22T11:22:12.600Z,18.36
2023-02-22T11:25:00.427Z,18.02
2023-02-22T11:27:43.557Z,17.78
2023-02-22T11:30:21.178Z,17.70
2023-02-22T11:32:55.490Z,17.73
2023-02-22T11:35:32.532Z,17.78
2023-02-22T11:38:16.491Z,17.91
2023-02-22T11:40:46.338Z,17.99
2023-02-22T11:43:18.874Z,18.06
2023-02-22T11:46:02.175Z,18.04
2023-02-22T11:48:36.865Z,17.94
2023-02-22T11:51:14.493Z,17.73
2023-02-22T11:54:19.781Z,17.60
2023-02-22T11:56:54.196Z,17.37
2023-02-22T11:59:31.997Z,17.13
2023-02-22T12:02:19.522Z,16.88
2023-02-22T12:05:28.859Z,16.68
2023-02-22T12:08:19.811Z,16.49
2023-02-22T12:10:49.078Z,16.34
2023-02-22T12:13:30.197Z,16.16
2023-02-22T12:16:19.387Z,16.01
2023-02-22T12:19:06.230Z,15.88
2023-02-22T12:21:38.522Z,15.85
2023-02-22T12:24:21.199Z,15.80
2023-02-22T12:26:55.817Z,15.83
2023-02-22T12:29:59.863Z,15.86
2023-02-22T12:32:43.846Z,15.93
2023-02-22T12:35:37.610Z,16.10
2023-02-22T12:38:15.078Z,16.25
2023-02-22T12:40:54.419Z,16.24
2023-02-22T12:43:30.276Z,16.18
2023-02-22T12:46:10.328Z,16.09
2023-02-22T12:48:57.498Z,15.94
2023-02-22T12:51:43.853Z,15.86
2023-02-22T12:54:44.946Z,15.83
2023-02-22T12:57:34.774Z,16.36
2023-02-22T13:00:48.429Z,16.60
2023-02-22T13:03:35.432Z,16.87
2023-02-22T13:06:22.761Z,16.86
2023-02-22T13:08:54.420Z,16.91
2023-02-22T13:11:42.215Z,17.12
2023-02-22T13:14:43.875Z,17.25
2023-02-22T13:17:23.963Z,17.52
2023-02-22T13:20:20.705Z,17.70
2023-02-22T13:22:56.049Z,18.14
2023-02-22T13:25:31.497Z,18.38
2023-02-22T13:28:13.288Z,19.20
2023-02-22T13:31:00.652Z,19.73
2023-02-22T13:33:44.221Z,20.80
2023-02-22T13:36:35.360Z,22.00
2023-02-22T13:39:31.696Z,22.93
2023-02-22T13:42:09.598Z,23.85
2023-02-22T13:45:23.751Z,24.32
2023-02-22T13:48:08.307Z,24.90
2023-02-22T13:50:48.825Z,25.38
2023-02-22T13:53:33.333Z,25.69
2023-02-22T13:56:02.538Z,25.78
2023-02-22T13:58:31.424Z,26.09
2023-02-22T14:01:00.450Z,26.51
2023-02-22T14:03:36.680Z,26.91
2023-02-22T14:06:07.369Z,27.10
2023-02-22T14:08:36.306Z,27.28
2023-02-22T14:11:15.951Z,27.28
2023-02-22T14:14:01.158Z,27.33
2023-02-22T14:16:32.353Z,27.47
2023-02-22T14:19:10.076Z,27.57
2023-02-22T14:21:56.747Z,27.49
2023-02-22T14:24:25.469Z,27.61
2023-02-22T14:26:59.757Z,27.60
2023-02-22T14:29:28.537Z,27.62
2023-02-22T14:32:07.631Z,27.65
2023-02-22T14:34:54.209Z,27.60
2023-02-22T14:37:43.179Z,27.54
2023-02-22T14:40:26.624Z,27.56
2023-02-22T14:43:13.336Z,27.45
2023-02-22T14:45:50.927Z,27.25
2023-02-22T14:48:25.286Z,26.90
2023-02-22T14:51:20.950Z,26.63
2023-02-22T14:54:00.900Z,26.51
2023-02-22T14:56:44.539Z,26.35
2023-02-22T14:59:26.538Z,26.12
2023-02-22T15:02:13.115Z,25.77
2023-02-22T15:04:44.377Z,25.28
2023-02-22T15:07:29.361Z,24.94
2023-02-22T15:10:40.245Z,24.64
2023-02-22T15:13:24.388Z,24.17
2023-02-22T15:16:01.371Z,23.73
2023-02-22T15:18:37.985Z,23.25
2023-02-22T15:21:19.697Z,22.69
2023-02-22T15:24:00.209Z,22.11
2023-02-22T15:26:35.551Z,21.42
2023-02-22T15:29:26.352Z,20.75
2023-02-22T15:31:57.033Z,19.90
2023-02-22T15:34:30.476Z,19.12
2023-02-22T15:37:15.457Z,18.32
2023-02-22T15:39:44.158Z,17.59
2023-02-22T15:42:21.188Z,16.88
2023-02-22T15:44:54.006Z,16.16
2023-02-22T15:47:26.188Z,15.49
2023-02-22T15:50:16.597Z,14.85
2023-02-22T15:53:28.676Z,14.20
2023-02-22T15:56:01.878Z,13.56
2023-02-22T15:58:31.072Z,13.08
2023-02-22T16:01:08.395Z,12.65
2023-02-22T16:03:45.817Z,12.20
2023-02-22T16:06:38.115Z,11.79
2023-02-22T16:09:25.831Z,11.39
2023-02-22T16:12:22.276Z,11.04
2023-02-22T16:14:52.758Z,10.64
2023-02-22T16:17:35.819Z,10.32
2023-02-22T16:20:14.766Z,10.03
2023-02-22T16:22:50.586Z,9.76
2023-02-22T16:25:19.724Z,9.48
2023-02-22T16:28:01.715Z,9.26
2023-02-22T16:30:32.793Z,9.02
2023-02-22T16:33:05.827Z,8.81
2023-02-22T16:35:35.866Z,8.62
2023-02-22T16:38:08.194Z,8.44
2023-02-22T16:40:50.823Z,8.26
2023-02-22T16:43:24.030Z,8.07
2023-02-22T16:45:55.910Z,7.91
2023-02-22T16:48:26.009Z,7.75
2023-02-22T16:50:57.206Z,7.61
2023-02-22T16:53:30.908Z,7.47
2023-02-22T16:56:06.031Z,7.34
2023-02-22T16:58:38.520Z,7.21
2023-02-22T17:01:08.130Z,7.10
2023-02-22T17:03:36.962Z,6.98
2023-02-22T17:06:06.064Z,6.85
2023-02-22T17:08:34.608Z,6.75
2023-02-22T17:11:04.455Z,6.66
2023-02-22T17:13:35.876Z,6.56
2023-02-22T17:16:05.754Z,6.47
2023-02-22T17:18:34.431Z,6.37
2023-02-22T17:21:03.888Z,6.27
2023-02-22T17:23:33.117Z,6.18
2023-02-22T17:26:03.612Z,6.10
2023-02-22T17:28:33.054Z,6.02
2023-02-22T17:31:02.332Z,5.93
2023-02-22T17:33:33.742Z,5.84
2023-02-22T17:36:05.189Z,5.77
2023-02-22T17:38:35.233Z,5.70
2023-02-22T17:41:06.829Z,5.66
2023-02-22T17:43:35.415Z,5.63
2023-02-22T17:46:08.797Z,5.63
2023-02-22T17:48:38.410Z,5.65
2023-02-22T17:51:08.933Z,5.69
2023-02-22T17:53:39.141Z,5.74
2023-02-22T17:56:13.888Z,5.79
2023-02-22T17:58:42.801Z,5.84
2023-02-22T18:01:27.355Z,5.89
2023-02-22T18:03:59.681Z,5.96
2023-02-22T18:06:30.427Z,6.02
2023-02-22T18:09:01.105Z,6.07
2023-02-22T18:11:32.843Z,6.12
2023-02-22T18:14:01.734Z,6.17
2023-02-22T18:16:30.776Z,6.25
2023-02-22T18:19:01.786Z,6.32
2023-02-22T18:21:30.965Z,6.39
2023-02-22T18:24:00.169Z,6.46
2023-02-22T18:26:29.186Z,6.52
2023-02-22T18:28:58.365Z,6.60
2023-02-22T18:31:27.113Z,6.66
2023-02-22T18:33:57.714Z,6.71
2023-02-22T18:36:26.486Z,6.75
2023-02-22T18:38:55.773Z,6.77
2023-02-22T18:41:25.716Z,6.83
2023-02-22T18:43:55.833Z,6.90
2023-02-22T18:46:25.492Z,6.98
2023-02-22T18:48:56.420Z,7.05
2023-02-22T18:51:26.515Z,7.14
2023-02-22T18:54:00.843Z,7.21
2023-02-22T18:56:30.379Z,7.28
2023-02-22T18:59:02.235Z,7.33
2023-02-22T19:01:38.797Z,7.40
2023-02-22T19:04:14.995Z,7.46
2023-02-22T19:06:45.432Z,7.52
2023-02-22T19:09:14.500Z,7.57
2023-02-22T19:11:47.204Z,7.60
2023-02-22T19:14:17.546Z,7.63
2023-02-22T19:16:48.983Z,7.64
2023-02-22T19:19:22.501Z,7.66
2023-02-22T19:21:52.908Z,7.68
2023-02-22T19:24:21.617Z,7.72
2023-02-22T19:26:57.754Z,7.75
2023-02-22T19:29:26.519Z,7.79
2023-02-22T19:31:55.128Z,7.83
2023-02-22T19:34:26.269Z,7.85
2023-02-22T19:36:56.295Z,7.85
2023-02-22T19:39:26.298Z,7.85
2023-02-22T19:41:56.594Z,7.85
2023-02-22T19:44:27.058Z,7.87
2023-02-22T19:46:55.952Z,7.89
2023-02-22T19:51:58.251Z,7.97
2023-02-22T19:54:27.550Z,8.00
2023-02-22T19:56:58.274Z,8.03
2023-02-22T19:59:26.866Z,8.07
2023-02-22T20:01:56.751Z,8.11
2023-02-22T20:04:26.720Z,8.13
2023-02-22T20:06:55.391Z,8.17
2023-02-22T20:09:30.512Z,8.23
2023-02-22T20:11:59.315Z,8.27
2023-02-22T20:15:28.014Z,8.27
2023-02-22T20:18:56.346Z,8.29
2023-02-22T20:22:31.178Z,8.28
2023-02-22T20:26:06.062Z,8.35
2023-02-22T20:28:34.920Z,8.42
2023-02-22T20:31:11.416Z,8.45
2023-02-22T20:33:53.780Z,8.48
2023-02-22T20:36:22.621Z,8.50
2023-02-22T20:38:56.057Z,8.53
2023-02-22T20:41:30.481Z,8.58
2023-02-22T20:44:01.174Z,8.62
2023-02-22T20:46:32.230Z,8.64
2023-02-22T20:49:01.748Z,8.63
2023-02-22T20:51:30.993Z,8.60
2023-02-22T20:54:00.336Z,8.59
2023-02-22T20:56:31.855Z,8.60
2023-02-22T20:59:01.483Z,8.58
2023-02-22T21:01:31.597Z,8.56
2023-02-22T21:04:05.484Z,8.51
2023-02-22T21:06:37.766Z,8.46
2023-02-22T21:09:12.020Z,8.38
2023-02-22T21:11:40.795Z,8.31
2023-02-22T21:14:12.792Z,8.24
2023-02-22T21:16:41.496Z,8.19
2023-02-22T21:19:10.434Z,8.13
2023-02-22T21:21:39.229Z,8.08
2023-02-22T21:24:08.745Z,8.03
2023-02-22T21:26:37.316Z,7.95
2023-02-22T21:29:07.035Z,7.88
2023-02-22T21:31:37.358Z,7.81
2023-02-22T21:34:05.941Z,7.75
2023-02-22T21:36:34.731Z,7.69
2023-02-22T21:39:09.865Z,7.63
2023-02-22T21:41:40.979Z,7.58
2023-02-22T21:44:10.705Z,7.53
2023-02-22T21:46:39.415Z,7.47
2023-02-22T21:49:08.198Z,7.42
2023-02-22T21:51:38.233Z,7.39
2023-02-22T21:54:10.495Z,7.34
2023-02-22T21:56:41.781Z,7.31
2023-02-22T21:59:16.590Z,7.28
2023-02-22T22:01:48.181Z,7.23
2023-02-22T22:04:27.767Z,7.18
2023-02-22T22:06:59.019Z,7.13
2023-02-22T22:09:33.028Z,7.09
2023-02-22T22:12:06.029Z,7.03
2023-02-22T22:14:36.004Z,6.97
2023-02-22T22:17:08.251Z,6.91
2023-02-22T22:19:41.891Z,6.84
2023-02-22T22:22:11.093Z,6.78
2023-02-22T22:24:41.873Z,6.74
2023-02-22T22:27:13.482Z,6.68
2023-02-22T22:29:43.829Z,6.63
2023-02-22T22:32:12.689Z,6.57
2023-02-22T22:34:43.016Z,6.53
2023-02-22T22:37:11.810Z,6.48
2023-02-22T22:39:40.581Z,6.45
2023-02-22T22:42:10.310Z,6.43
2023-02-22T22:44:42.542Z,6.40
2023-02-22T22:47:14.049Z,6.35
2023-02-22T22:49:43.029Z,6.32
2023-02-22T22:52:17.009Z,6.29
2023-02-22T22:54:45.834Z,6.29
2023-02-22T22:57:15.023Z,6.26
2023-02-22T22:59:43.709Z,6.23
2023-02-22T23:02:12.861Z,6.21
2023-02-22T23:04:41.297Z,6.17
2023-02-22T23:07:09.978Z,6.13
2023-02-22T23:09:39.706Z,6.12
2023-02-22T23:12:09.246Z,6.10
2023-02-22T23:14:44.444Z,6.09
2023-02-22T23:17:31.584Z,6.07
2023-02-22T23:20:00.455Z,6.06
2023-02-22T23:22:29.437Z,6.06
2023-02-22T23:25:00.140Z,6.07
2023-02-22T23:27:29.164Z,6.07
2023-02-22T23:29:57.859Z,6.06
2023-02-22T23:32:29.575Z,6.05
2023-02-22T23:34:58.298Z,6.04
2023-02-22T23:37:26.882Z,6.03
2023-02-22T23:39:55.468Z,6.00
2023-02-22T23:42:24.356Z,5.99
2023-02-22T23:44:53.355Z,5.96
2023-02-22T23:47:22.044Z,5.95
2023-02-22T23:49:50.619Z,5.94
2023-02-22T23:52:24.594Z,5.93
2023-02-22T23:54:54.195Z,5.91
2023-02-22T23:57:24.493Z,5.90
2023-02-22T23:59:53.048Z,5.91
